Time;durP1;ratioP1;P1;durP2;ratioP2;P2;SDS_P1;SDS_P2;PMS_P1;PMS_P2;Temp;Humidity;BMP_temperature;BMP_pressure;BME280_temperature;BME280_humidity;BME280_pressure;Samples;Min_cycle;Max_cycle;Signal;HPM_P1;HPM_P2
2022/12/04 00:02:12;;;;;;;11.75;5.22;;;3.30;99.90;;;;;;5043738;28;20021;-63
2022/12/04 00:04:38;;;;;;;13.57;5.25;;;3.20;99.90;;;;;;5043004;28;20118;-63
2022/12/04 00:07:10;;;;;;;14.75;5.65;;;3.20;99.90;;;;;;5045084;28;20099;-63
2022/12/04 00:09:35;;;;;;;7.50;3.88;;;3.20;99.90;;;;;;5040372;28;20499;-63
2022/12/04 00:12:07;;;;;;;7.75;3.55;;;3.20;99.90;;;;;;5044616;28;20112;-63
2022/12/04 00:14:33;;;;;;;9.15;4.63;;;3.30;99.90;;;;;;5045334;28;20029;-62
2022/12/04 00:17:20;;;;;;;12.35;5.10;;;3.30;99.90;;;;;;5029986;28;20576;-63
2022/12/04 00:19:52;;;;;;;14.65;4.53;;;3.30;99.90;;;;;;5017379;28;20144;-63
2022/12/04 00:22:19;;;;;;;8.52;4.70;;;3.20;99.90;;;;;;5047140;28;20024;-63
2022/12/04 00:24:57;;;;;;;7.50;3.88;;;3.20;99.90;;;;;;5038796;28;20525;-63
2022/12/04 00:27:26;;;;;;;8.52;4.15;;;3.20;99.90;;;;;;5047516;28;20029;-62
2022/12/04 00:29:57;;;;;;;10.93;4.68;;;3.10;99.90;;;;;;5042520;28;20025;-63
2022/12/04 00:32:48;;;;;;;8.02;5.22;;;3.10;99.90;;;;;;5047731;28;20044;-62
2022/12/04 00:35:24;;;;;;;5.78;3.80;;;3.10;99.90;;;;;;5036429;28;20038;-63
2022/12/04 00:37:56;;;;;;;9.95;3.58;;;3.00;99.90;;;;;;5033514;28;20068;-63
2022/12/04 00:40:24;;;;;;;7.85;4.55;;;2.90;99.90;;;;;;5039827;28;20083;-62
2022/12/04 00:43:02;;;;;;;5.78;3.78;;;2.90;99.90;;;;;;5050503;28;20032;-62
2022/12/04 00:46:35;;;;;;;9.40;5.55;;;2.90;99.90;;;;;;5023319;28;20441;-63
2022/12/04 00:49:01;;;;;;;6.30;3.45;;;2.90;99.90;;;;;;4973474;28;20150;-62
2022/12/04 00:51:32;;;;;;;9.45;3.40;;;2.90;99.90;;;;;;5036389;28;20522;-63
2022/12/04 00:54:01;;;;;;;9.35;4.45;;;2.90;99.90;;;;;;5040928;28;20489;-62
2022/12/04 00:56:29;;;;;;;12.77;4.88;;;2.90;99.90;;;;;;5042338;28;20047;-62
2022/12/04 00:59:01;;;;;;;7.20;3.33;;;2.90;99.90;;;;;;5045164;28;20028;-62
2022/12/04 01:01:30;;;;;;;11.93;4.38;;;2.90;99.90;;;;;;5042804;28;20021;-62
2022/12/04 01:04:27;;;;;;;7.38;3.53;;;2.90;99.90;;;;;;5020966;28;20511;-63
2022/12/04 01:07:11;;;;;;;11.25;3.83;;;2.80;99.90;;;;;;5039688;28;20036;-63
2022/12/04 01:09:46;;;;;;;8.68;4.28;;;2.80;99.90;;;;;;5034398;28;20025;-63
2022/12/04 01:12:33;;;;;;;9.05;4.07;;;2.80;99.90;;;;;;5045344;28;20040;-63
2022/12/04 01:15:06;;;;;;;5.57;3.58;;;2.80;99.90;;;;;;5040602;28;20033;-63
2022/12/04 01:17:50;;;;;;;10.27;4.97;;;2.80;99.90;;;;;;5039293;28;20539;-63
2022/12/04 01:20:34;;;;;;;11.05;5.72;;;2.90;99.90;;;;;;5038734;28;20036;-63
2022/12/04 01:24:15;;;;;;;12.10;5.00;;;2.80;99.90;;;;;;5012248;28;20022;-63
2022/12/04 01:26:47;;;;;;;7.72;5.05;;;2.80;99.90;;;;;;4986840;28;20046;-63
2022/12/04 01:29:22;;;;;;;5.35;3.72;;;2.80;99.90;;;;;;4983004;28;20045;-62
2022/12/04 01:32:28;;;;;;;6.32;4.43;;;2.80;99.90;;;;;;4989108;28;20038;-63
2022/12/04 01:34:56;;;;;;;10.50;5.90;;;2.80;99.90;;;;;;4982803;28;20037;-63
2022/12/04 01:37:37;;;;;;;11.65;4.80;;;2.80;99.90;;;;;;4988771;28;20063;-63
2022/12/04 01:41:11;;;;;;;12.13;5.80;;;2.80;99.90;;;;;;4982663;28;20026;-63
2022/12/04 01:43:48;;;;;;;8.95;4.38;;;2.80;99.90;;;;;;4969904;28;20046;-63
2022/12/04 01:46:26;;;;;;;6.95;4.82;;;2.70;99.90;;;;;;4988660;28;20507;-63
2022/12/04 01:50:00;;;;;;;9.95;4.00;;;2.70;99.90;;;;;;4971967;28;20112;-63
2022/12/04 01:52:27;;;;;;;9.93;5.68;;;2.80;99.90;;;;;;4923772;29;20067;-64
2022/12/04 01:55:00;;;;;;;9.65;5.32;;;2.80;99.90;;;;;;4950390;28;20038;-63
2022/12/04 01:57:37;;;;;;;12.75;4.80;;;2.80;99.90;;;;;;4988827;28;20065;-63
2022/12/04 02:00:58;;;;;;;12.27;4.95;;;2.80;99.90;;;;;;4982430;28;20026;-63
2022/12/04 02:03:39;;;;;;;8.48;4.57;;;2.80;99.90;;;;;;4994522;28;20057;-63
2022/12/04 02:06:06;;;;;;;18.33;5.35;;;2.90;99.90;;;;;;5023090;28;20115;-63
2022/12/04 02:08:53;;;;;;;14.68;4.95;;;2.90;99.90;;;;;;5026197;28;20026;-63
2022/12/04 02:12:22;;;;;;;10.48;5.03;;;3.00;99.90;;;;;;5026029;28;20030;-63
2022/12/04 02:15:08;;;;;;;8.43;4.53;;;2.90;99.90;;;;;;5042143;28;20022;-63
2022/12/04 02:18:24;;;;;;;12.48;5.63;;;3.00;99.90;;;;;;5030845;28;20150;-63
2022/12/04 02:21:23;;;;;;;12.00;5.75;;;3.00;99.90;;;;;;5044941;28;20033;-63
2022/12/04 02:24:48;;;;;;;11.73;5.90;;;3.00;99.90;;;;;;5047975;28;20078;-63
2022/12/04 02:27:38;;;;;;;8.98;3.95;;;3.00;99.90;;;;;;5042968;28;20126;-63
2022/12/04 02:30:30;;;;;;;11.50;4.82;;;3.00;99.90;;;;;;5043269;28;20029;-63
2022/12/04 02:37:17;;;;;;;8.20;5.03;;;3.10;99.90;;;;;;4952621;29;20809;-63
2022/12/04 02:40:40;;;;;;;8.43;4.68;;;3.00;99.90;;;;;;4931878;29;20042;-63
2022/12/04 02:43:41;;;;;;;10.38;5.07;;;3.00;99.90;;;;;;4931865;29;20036;-64
2022/12/04 02:46:49;;;;;;;9.60;5.22;;;3.00;99.90;;;;;;4940403;29;20541;-63
2022/12/04 02:49:47;;;;;;;15.55;8.02;;;3.00;99.90;;;;;;4927182;29;20585;-63
2022/12/04 02:52:34;;;;;;;16.40;6.07;;;3.00;99.90;;;;;;4959460;28;20046;-63
2022/12/04 02:55:38;;;;;;;17.00;5.97;;;3.00;99.90;;;;;;4951872;28;20046;-63
2022/12/04 02:58:54;;;;;;;8.80;4.75;;;3.00;99.90;;;;;;4952488;28;20042;-63
2022/12/04 03:05:39;;;;;;;10.10;5.65;;;3.10;99.90;;;;;;4966577;28;20491;-63
2022/12/04 03:08:39;;;;;;;10.13;5.20;;;3.10;99.90;;;;;;4952763;28;20059;-63
2022/12/04 03:12:20;;;;;;;7.97;4.80;;;3.00;99.90;;;;;;4951982;28;20049;-63
2022/12/04 03:15:22;;;;;;;13.27;5.97;;;3.10;99.90;;;;;;4993413;28;20050;-63
2022/12/04 03:18:41;;;;;;;11.30;4.70;;;3.10;99.90;;;;;;4997468;28;20042;-63
2022/12/04 03:21:29;;;;;;;8.55;4.72;;;3.20;99.90;;;;;;5034223;28;20042;-63
2022/12/04 03:28:31;;;;;;;12.88;5.15;;;3.20;99.90;;;;;;5029014;28;20032;-63
2022/12/04 03:32:08;;;;;;;9.07;4.93;;;3.10;99.90;;;;;;5022979;28;20037;-63
2022/12/04 03:34:59;;;;;;;9.45;4.47;;;3.00;99.90;;;;;;4937343;28;20608;-63
2022/12/04 03:38:10;;;;;;;10.48;4.38;;;3.10;99.90;;;;;;4935866;29;20035;-63
2022/12/04 03:41:02;;;;;;;19.48;6.93;;;3.10;99.90;;;;;;4949682;29;20125;-63
2022/12/04 03:44:32;;;;;;;9.35;4.40;;;3.20;99.90;;;;;;4932264;29;20028;-63
2022/12/04 03:47:31;;;;;;;11.55;5.30;;;3.20;99.90;;;;;;4948541;29;20052;-62
2022/12/04 03:51:25;;;;;;;10.25;6.40;;;3.30;99.90;;;;;;4943750;29;20031;-63
2022/12/04 03:54:43;;;;;;;9.95;5.38;;;3.20;99.90;;;;;;4884365;29;20143;-63
2022/12/04 04:00:26;;;;;;;13.35;6.50;;;3.20;99.90;;;;;;4948939;28;20666;-63
2022/12/04 04:10:18;;;;;;;7.32;4.10;;;3.20;99.90;;;;;;4932244;29;20051;-62
2022/12/04 04:25:35;;;;;;;11.40;6.60;;;3.30;99.90;;;;;;4927140;29;20043;-62
2022/12/04 04:35:52;;;;;;;7.32;3.92;;;3.40;99.90;;;;;;4918262;29;20535;-63
2022/12/04 04:39:12;;;;;;;13.10;5.22;;;3.40;99.90;;;;;;4900365;29;20037;-63
2022/12/04 04:42:48;;;;;;;12.82;4.47;;;3.40;99.90;;;;;;4918747;29;20047;-63
2022/12/04 04:52:01;;;;;;;7.03;3.85;;;3.40;99.90;;;;;;4860637;29;20060;-63
2022/12/04 04:54:31;;;;;;;8.25;4.18;;;3.40;99.90;;;;;;4864991;29;20489;-63
2022/12/04 04:57:53;;;;;;;7.53;4.40;;;3.40;99.90;;;;;;4860414;29;20045;-63
2022/12/04 05:00:43;;;;;;;;;;;;;;;;;;;;;
2022/12/04 05:03:42;;;;;;;10.57;5.43;;;3.30;99.90;;;;;;4843387;29;19947;-63
2022/12/04 05:06:09;;;;;;;10.70;4.20;;;3.30;99.90;;;;;;4858334;29;20546;-63
2022/12/04 05:08:53;;;;;;;8.85;4.68;;;3.20;99.90;;;;;;4852083;29;20064;-63
2022/12/04 05:11:52;;;;;;;8.90;3.53;;;3.20;99.90;;;;;;4918257;29;20054;-63
2022/12/04 05:15:05;;;;;;;6.72;4.28;;;3.20;99.90;;;;;;4921656;29;20114;-63
2022/12/04 05:17:35;;;;;;;11.63;5.55;;;3.20;99.90;;;;;;4841871;29;20050;-63
2022/12/04 05:24:02;;;;;;;10.02;4.13;;;3.30;99.90;;;;;;4864667;29;20051;-63
2022/12/04 05:26:27;;;;;;;7.50;3.90;;;3.20;99.90;;;;;;4912547;29;20036;-63
2022/12/04 05:30:01;;;;;;;7.47;4.30;;;3.20;99.90;;;;;;4924536;29;20051;-63
2022/12/04 05:32:52;;;;;;;8.32;3.22;;;3.30;99.90;;;;;;4926574;29;20064;-63
2022/12/04 05:35:17;;;;;;;9.85;4.57;;;3.30;99.90;;;;;;5019467;28;20056;-63
2022/12/04 05:38:24;;;;;;;11.27;5.60;;;3.30;99.90;;;;;;5048962;28;20033;-63
2022/12/04 05:41:45;;;;;;;9.18;4.30;;;3.30;99.90;;;;;;5041043;28;20076;-63
2022/12/04 05:45:07;;;;;;;10.32;4.25;;;3.40;99.90;;;;;;5039770;28;20037;-63
2022/12/04 05:47:55;;;;;;;10.60;4.68;;;3.40;99.90;;;;;;5044755;28;20094;-62
2022/12/04 05:50:57;;;;;;;11.32;4.78;;;3.40;99.90;;;;;;5034425;28;20103;-63
2022/12/04 05:53:25;;;;;;;7.50;3.22;;;3.50;99.90;;;;;;4972083;23;20058;-64
2022/12/04 05:59:43;;;;;;;4.13;2.85;;;3.50;99.90;;;;;;4965567;28;20058;-64
2022/12/04 06:02:11;;;;;;;5.32;2.47;;;3.40;99.90;;;;;;4969077;28;20035;-64
2022/12/04 06:04:43;;;;;;;8.93;4.10;;;3.50;99.90;;;;;;4965587;28;20061;-64
2022/12/04 06:07:18;;;;;;;10.85;5.93;;;3.40;99.90;;;;;;4960079;28;20027;-65
2022/12/04 06:09:44;;;;;;;8.48;4.05;;;3.50;99.90;;;;;;4959019;28;20043;-64
2022/12/04 06:12:25;;;;;;;19.40;4.18;;;3.40;99.90;;;;;;4969262;28;20041;-64
2022/12/04 06:15:15;;;;;;;6.47;4.93;;;3.50;99.90;;;;;;4962571;28;20106;-64
2022/12/04 06:17:40;;;;;;;7.95;4.25;;;3.50;99.90;;;;;;4967329;28;20139;-64
2022/12/04 06:20:12;;;;;;;8.63;3.60;;;3.50;99.90;;;;;;4959995;28;20039;-64
2022/12/04 06:22:47;;;;;;;9.32;4.70;;;3.50;99.90;;;;;;4946621;28;20410;-64
2022/12/04 06:25:32;;;;;;;6.35;3.50;;;3.50;99.90;;;;;;4957098;28;20030;-64
2022/12/04 06:28:21;;;;;;;11.75;3.88;;;3.50;99.90;;;;;;4922060;28;20455;-65
2022/12/04 06:31:34;;;;;;;8.15;3.70;;;3.50;99.90;;;;;;4900971;29;20084;-64
2022/12/04 06:34:12;;;;;;;10.18;4.28;;;3.60;99.90;;;;;;4940809;28;20042;-65
2022/12/04 06:36:41;;;;;;;8.43;4.40;;;3.60;99.90;;;;;;5006946;28;20045;-64
2022/12/04 06:39:08;;;;;;;8.05;3.50;;;3.60;99.90;;;;;;5026777;28;20087;-65
2022/12/04 06:41:34;;;;;;;6.90;4.22;;;3.70;99.90;;;;;;5012247;28;20105;-64
2022/12/04 06:44:03;;;;;;;4.40;2.70;;;3.60;99.90;;;;;;5025291;28;20104;-64
2022/12/04 06:46:38;;;;;;;4.72;2.92;;;3.60;99.90;;;;;;5012135;28;20021;-64
2022/12/04 06:49:21;;;;;;;7.15;4.57;;;3.60;99.90;;;;;;4985610;28;20103;-64
2022/12/04 06:51:47;;;;;;;6.32;3.08;;;3.60;99.90;;;;;;5021486;28;20040;-65
2022/12/04 06:54:16;;;;;;;7.90;4.15;;;3.60;99.90;;;;;;5008946;28;20025;-65
2022/12/04 06:56:53;;;;;;;5.07;3.00;;;3.60;99.90;;;;;;5024938;28;20505;-65
2022/12/04 06:59:53;;;;;;;6.97;3.53;;;3.60;99.90;;;;;;5012771;28;20405;-65
2022/12/04 07:02:29;;;;;;;3.58;1.85;;;3.60;99.90;;;;;;5011254;28;20038;-65
2022/12/04 07:05:00;;;;;;;6.07;3.42;;;3.50;99.90;;;;;;5009810;28;20608;-66
2022/12/04 07:08:25;;;;;;;7.00;3.88;;;3.60;99.90;;;;;;5023816;28;20034;-65
2022/12/04 07:10:50;;;;;;;5.88;3.40;;;3.60;99.90;;;;;;5024482;28;20025;-65
2022/12/04 07:13:19;;;;;;;9.50;3.28;;;3.60;99.90;;;;;;5031754;28;20503;-64
2022/12/04 07:16:19;;;;;;;4.32;2.38;;;3.60;99.90;;;;;;5022780;28;20033;-65
2022/12/04 07:18:55;;;;;;;7.68;2.67;;;3.60;99.90;;;;;;5026765;28;20431;-64
2022/12/04 07:21:47;;;;;;;20.63;3.78;;;3.60;99.90;;;;;;5003498;28;20036;-64
2022/12/04 07:24:43;;;;;;;7.30;4.53;;;3.60;99.90;;;;;;4947419;28;20039;-64
2022/12/04 07:27:20;;;;;;;7.82;4.13;;;3.70;99.90;;;;;;4862047;29;20041;-64
2022/12/04 07:30:11;;;;;;;9.05;3.80;;;3.70;99.90;;;;;;4879714;29;20052;-64
2022/12/04 07:33:04;;;;;;;4.50;2.17;;;3.60;99.90;;;;;;4884296;29;20059;-67
2022/12/04 07:35:33;;;;;;;6.15;3.28;;;3.70;99.90;;;;;;4875443;29;20048;-66
2022/12/04 07:38:30;;;;;;;6.82;4.07;;;3.70;99.90;;;;;;4875771;29;20076;-66
2022/12/04 07:40:58;;;;;;;6.38;2.78;;;3.70;99.90;;;;;;4873965;29;20567;-66
2022/12/04 07:44:00;;;;;;;7.47;2.85;;;3.70;99.90;;;;;;4874612;29;20153;-66
2022/12/04 07:46:44;;;;;;;7.55;3.97;;;3.70;99.90;;;;;;4872374;29;20041;-66
2022/12/04 07:49:13;;;;;;;7.35;2.78;;;3.70;99.90;;;;;;4875948;29;20037;-65
2022/12/04 07:51:38;;;;;;;9.88;4.15;;;3.80;99.90;;;;;;4876413;29;20567;-66
2022/12/04 07:54:13;;;;;;;6.05;3.50;;;3.80;99.90;;;;;;4870245;29;20124;-66
2022/12/04 07:57:02;;;;;;;10.13;3.40;;;3.80;99.90;;;;;;4880110;29;20048;-66
2022/12/04 07:59:34;;;;;;;16.63;3.83;;;3.80;99.90;;;;;;4873206;29;20051;-67
2022/12/04 08:08:16;;;;;;;7.80;3.10;;;3.80;99.90;;;;;;5014501;28;20178;-68
2022/12/04 08:10:42;;;;;;;6.72;3.28;;;3.80;99.90;;;;;;5016213;28;20315;-68
2022/12/04 08:13:07;;;;;;;6.75;3.47;;;3.80;99.90;;;;;;5012559;28;20026;-68
2022/12/04 08:15:34;;;;;;;7.50;3.25;;;3.80;99.90;;;;;;4990946;28;20405;-68
2022/12/04 08:18:00;;;;;;;6.95;3.00;;;3.80;99.90;;;;;;4966667;28;20038;-68
2022/12/04 08:20:25;;;;;;;9.23;3.45;;;3.90;99.90;;;;;;4997987;28;20462;-68
2022/12/04 08:22:51;;;;;;;10.30;3.63;;;3.90;99.90;;;;;;5009420;28;20030;-68
2022/12/04 08:25:17;;;;;;;9.82;3.95;;;3.90;99.90;;;;;;4994743;28;20088;-68
2022/12/04 08:27:45;;;;;;;7.30;2.85;;;3.90;99.90;;;;;;5004050;28;20037;-68
2022/12/04 08:30:12;;;;;;;7.40;3.90;;;4.00;99.90;;;;;;4999653;28;20030;-68
2022/12/04 08:32:37;;;;;;;8.02;2.58;;;4.10;99.90;;;;;;5002937;28;20049;-68
2022/12/04 08:35:03;;;;;;;8.32;3.50;;;4.10;99.90;;;;;;4986825;28;20062;-68
2022/12/04 08:37:32;;;;;;;5.28;3.80;;;4.00;99.90;;;;;;5003844;28;20071;-68
2022/12/04 08:40:07;;;;;;;4.13;2.97;;;4.00;99.90;;;;;;4971713;28;20370;-72
2022/12/04 08:42:32;;;;;;;6.65;2.42;;;4.00;99.90;;;;;;5009203;28;20028;-73
2022/12/04 08:44:58;;;;;;;7.47;2.83;;;4.00;99.90;;;;;;4987251;28;20377;-71
2022/12/04 08:47:24;;;;;;;5.10;2.55;;;4.00;99.90;;;;;;5005301;28;20397;-73
2022/12/04 08:49:49;;;;;;;11.73;3.55;;;3.90;99.90;;;;;;5005503;28;20275;-72
2022/12/04 08:52:15;;;;;;;11.73;3.90;;;4.00;99.90;;;;;;5004124;28;20112;-70
2022/12/04 08:54:41;;;;;;;6.55;3.88;;;4.00;99.90;;;;;;4988531;28;20045;-70
2022/12/04 08:57:07;;;;;;;6.60;3.53;;;4.00;99.90;;;;;;5003351;28;20180;-75
2022/12/04 08:59:32;;;;;;;5.60;2.83;;;4.00;99.90;;;;;;5005959;28;20032;-70
2022/12/04 09:01:58;;;;;;;4.00;2.72;;;4.00;99.90;;;;;;4985948;28;20107;-70
2022/12/04 09:04:24;;;;;;;8.35;3.65;;;4.00;99.90;;;;;;4996977;28;20388;-69
2022/12/04 09:06:49;;;;;;;5.88;2.90;;;4.00;99.90;;;;;;5000167;28;20030;-71
2022/12/04 09:09:15;;;;;;;5.28;2.58;;;4.00;99.90;;;;;;4990936;28;20112;-70
2022/12/04 09:11:45;;;;;;;6.45;3.17;;;4.00;99.90;;;;;;5003437;28;20026;-70
2022/12/04 09:14:11;;;;;;;6.53;2.85;;;4.10;99.90;;;;;;4993273;28;20030;-70
2022/12/04 09:16:37;;;;;;;6.47;3.03;;;4.10;99.90;;;;;;5002801;28;20060;-70
2022/12/04 09:19:03;;;;;;;6.22;3.33;;;4.10;99.90;;;;;;4999148;28;20045;-70
2022/12/04 09:21:29;;;;;;;7.25;3.28;;;4.10;99.90;;;;;;4988138;28;20027;-69
2022/12/04 09:23:55;;;;;;;9.10;4.30;;;4.10;99.90;;;;;;4983254;28;20022;-70
2022/12/04 09:26:30;;;;;;;10.20;4.47;;;4.10;99.90;;;;;;5004756;28;20393;-70
2022/12/04 09:28:59;;;;;;;6.95;2.53;;;4.10;99.90;;;;;;4977276;28;20042;-69
2022/12/04 09:31:25;;;;;;;4.63;2.70;;;4.10;99.90;;;;;;4997984;28;20555;-70
2022/12/04 09:33:51;;;;;;;4.82;2.97;;;4.10;99.90;;;;;;5001084;28;20389;-69
2022/12/04 09:36:17;;;;;;;10.05;3.13;;;4.10;99.90;;;;;;4994458;28;20029;-70
2022/12/04 09:38:51;;;;;;;6.18;3.35;;;4.20;99.90;;;;;;4984876;28;20061;-69
2022/12/04 09:41:35;;;;;;;4.93;2.90;;;4.20;99.90;;;;;;4994616;28;20034;-68
2022/12/04 09:44:21;;;;;;;4.57;2.67;;;4.30;99.90;;;;;;4994331;28;20030;-68
2022/12/04 09:47:23;;;;;;;7.20;3.58;;;4.30;99.90;;;;;;4973024;28;20522;-68
2022/12/04 09:49:57;;;;;;;6.78;2.92;;;4.30;99.90;;;;;;4987963;28;20038;-68
2022/12/04 09:52:47;;;;;;;8.48;3.22;;;4.30;99.90;;;;;;4983559;28;20026;-68
2022/12/04 09:55:24;;;;;;;7.13;2.17;;;4.40;99.90;;;;;;4979996;28;20092;-69
2022/12/04 09:57:54;;;;;;;6.60;3.17;;;4.40;99.90;;;;;;4986323;28;20069;-69
2022/12/04 10:00:20;;;;;;;94.10;40.03;;;4.40;99.90;;;;;;4985979;28;20061;-68
2022/12/04 10:03:11;;;;;;;19.45;8.82;;;4.40;99.90;;;;;;4993473;28;20129;-69
2022/12/04 10:06:07;;;;;;;11.50;4.80;;;4.40;99.90;;;;;;4963415;28;20046;-69
2022/12/04 10:08:39;;;;;;;7.90;4.47;;;4.40;99.90;;;;;;4997722;28;20048;-69
2022/12/04 10:11:38;;;;;;;4.60;2.90;;;4.40;99.90;;;;;;4984676;28;20076;-68
2022/12/04 10:14:45;;;;;;;6.15;3.78;;;4.40;99.90;;;;;;4984442;28;20042;-70
2022/12/04 10:18:01;;;;;;;6.28;3.42;;;4.50;99.90;;;;;;4984153;28;20034;-68
2022/12/04 10:21:00;;;;;;;4.97;2.72;;;4.40;99.90;;;;;;4946064;28;20567;-69
2022/12/04 10:23:40;;;;;;;12.10;3.80;;;4.50;99.90;;;;;;4969518;28;20109;-70
2022/12/04 10:26:16;;;;;;;6.07;3.83;;;4.50;99.90;;;;;;4983267;28;22256;-67
2022/12/04 10:28:59;;;;;;;12.40;3.10;;;4.50;99.90;;;;;;4955584;28;20061;-68
2022/12/04 10:31:26;;;;;;;9.20;4.03;;;4.50;99.90;;;;;;4968918;28;20026;-68
2022/12/04 10:34:17;;;;;;;10.02;3.78;;;4.50;99.90;;;;;;4987123;28;20034;-67
2022/12/04 10:36:53;;;;;;;10.02;3.97;;;4.40;99.90;;;;;;4978144;28;20436;-68
2022/12/04 10:39:29;;;;;;;8.85;2.80;;;4.40;99.90;;;;;;4981555;28;20044;-68
2022/12/04 10:42:26;;;;;;;7.65;3.70;;;4.40;99.90;;;;;;4994178;28;20123;-68
2022/12/04 10:44:52;;;;;;;7.82;3.92;;;4.30;99.90;;;;;;4979244;28;20389;-70
2022/12/04 10:47:21;;;;;;;7.25;3.70;;;4.30;99.90;;;;;;4990505;28;20540;-68
2022/12/04 10:49:47;;;;;;;7.88;4.45;;;4.20;99.90;;;;;;4984751;28;20049;-69
2022/12/04 10:52:12;;;;;;;7.63;3.80;;;4.30;99.90;;;;;;4970760;28;20041;-69
2022/12/04 10:54:52;;;;;;;8.15;3.65;;;4.30;99.90;;;;;;4997120;28;20042;-68
2022/12/04 10:57:18;;;;;;;10.15;4.13;;;4.40;99.90;;;;;;4978457;28;20031;-68
2022/12/04 10:59:53;;;;;;;11.10;4.53;;;4.50;99.90;;;;;;4988702;28;20489;-67
2022/12/04 11:02:25;;;;;;;10.60;4.28;;;4.40;99.90;;;;;;4973719;28;20025;-69
2022/12/04 11:04:58;;;;;;;9.27;3.33;;;4.30;99.90;;;;;;4997191;28;20031;-69
2022/12/04 11:07:41;;;;;;;9.70;4.53;;;4.30;99.90;;;;;;4993850;28;20448;-68
2022/12/04 11:10:37;;;;;;;10.57;3.65;;;4.30;99.90;;;;;;5003918;28;20121;-69
2022/12/04 11:13:17;;;;;;;10.18;4.32;;;4.30;99.90;;;;;;5005139;28;20046;-68
2022/12/04 11:15:52;;;;;;;9.52;3.83;;;4.30;99.90;;;;;;4997882;28;20030;-71
2022/12/04 11:18:23;;;;;;;15.68;4.68;;;4.20;99.90;;;;;;4983136;28;20037;-69
2022/12/04 11:21:12;;;;;;;7.60;3.75;;;4.20;99.90;;;;;;4987931;28;20026;-66
2022/12/04 11:23:46;;;;;;;10.80;4.53;;;4.20;99.90;;;;;;4981753;28;20443;-69
2022/12/04 11:26:13;;;;;;;6.57;3.80;;;4.20;99.90;;;;;;5004984;28;20022;-69
2022/12/04 11:28:46;;;;;;;6.85;3.58;;;4.20;99.90;;;;;;5006817;28;20037;-73
2022/12/04 11:31:19;;;;;;;10.80;2.95;;;4.20;99.90;;;;;;4980531;28;20034;-71
2022/12/04 11:33:53;;;;;;;19.73;6.28;;;4.10;99.90;;;;;;4985709;28;20121;-70
2022/12/04 11:36:29;;;;;;;8.27;3.38;;;4.10;99.90;;;;;;4968667;28;20721;-68
2022/12/04 11:39:17;;;;;;;8.25;4.18;;;4.10;99.90;;;;;;5000229;28;20045;-69
2022/12/04 11:41:43;;;;;;;5.68;3.22;;;4.00;99.90;;;;;;4992090;28;20027;-69
2022/12/04 11:44:26;;;;;;;10.38;5.55;;;4.10;99.90;;;;;;4984629;28;20030;-69
2022/12/04 11:46:55;;;;;;;8.88;4.35;;;4.10;99.90;;;;;;5005995;28;20404;-69
2022/12/04 11:49:23;;;;;;;15.00;5.43;;;4.00;99.90;;;;;;4996428;28;20488;-68
2022/12/04 11:52:17;;;;;;;8.30;4.93;;;4.20;99.90;;;;;;4985816;28;20112;-67
2022/12/04 11:55:13;;;;;;;7.57;3.72;;;4.20;99.90;;;;;;4977505;28;20049;-66
2022/12/04 11:58:00;;;;;;;10.90;4.95;;;4.20;99.90;;;;;;5003416;28;20040;-68
2022/12/04 12:00:27;;;;;;;8.57;4.00;;;4.20;99.90;;;;;;4995109;28;20030;-69
2022/12/04 12:03:51;;;;;;;10.93;5.57;;;4.20;99.90;;;;;;4987481;28;20429;-69
2022/12/04 12:06:59;;;;;;;11.23;4.85;;;4.20;99.90;;;;;;4907243;28;20104;-69
2022/12/04 12:10:05;;;;;;;11.75;2.90;;;4.20;99.90;;;;;;4971690;28;20034;-68
2022/12/04 12:13:12;;;;;;;8.02;3.92;;;4.10;99.90;;;;;;5001190;28;20555;-68
2022/12/04 12:16:15;;;;;;;12.13;4.32;;;4.10;99.90;;;;;;5002010;28;20081;-67
2022/12/04 12:18:56;;;;;;;9.90;4.38;;;4.10;99.90;;;;;;4981359;28;20041;-69
2022/12/04 12:21:34;;;;;;;11.98;4.63;;;4.10;99.90;;;;;;5003928;28;20174;-69
2022/12/04 12:24:24;;;;;;;10.68;4.60;;;4.10;99.90;;;;;;4993756;28;20043;-67
2022/12/04 12:26:54;;;;;;;15.40;5.15;;;4.10;99.90;;;;;;4992428;28;20397;-75
2022/12/04 12:29:42;;;;;;;8.40;4.75;;;4.10;99.90;;;;;;4988975;28;20038;-69
2022/12/04 12:32:28;;;;;;;15.48;5.68;;;4.20;99.90;;;;;;4972903;28;20041;-70
2022/12/04 12:34:54;;;;;;;6.07;3.72;;;4.10;99.90;;;;;;4976426;28;20464;-70
2022/12/04 12:37:38;;;;;;;8.10;3.85;;;4.10;99.90;;;;;;4981618;28;20022;-69
2022/12/04 12:40:12;;;;;;;12.70;4.47;;;4.10;99.90;;;;;;4970075;28;20076;-69
2022/12/04 12:42:50;;;;;;;23.27;5.63;;;4.10;99.90;;;;;;4982714;28;20027;-70
2022/12/04 12:45:41;;;;;;;7.15;3.70;;;4.00;99.90;;;;;;4965214;28;20026;-68
2022/12/04 12:48:50;;;;;;;10.97;4.80;;;4.00;99.90;;;;;;4991420;28;20093;-69
2022/12/04 12:51:53;;;;;;;13.35;4.68;;;4.00;99.90;;;;;;4988277;28;20309;-70
2022/12/04 12:54:38;;;;;;;12.10;5.95;;;4.00;99.90;;;;;;4973709;28;20042;-69
2022/12/04 12:57:26;;;;;;;10.43;5.60;;;4.00;99.90;;;;;;4987251;28;20066;-69
2022/12/04 13:00:17;;;;;;;9.90;5.00;;;4.10;99.90;;;;;;4986578;28;20026;-69
2022/12/04 13:03:17;;;;;;;9.55;4.63;;;4.10;99.90;;;;;;5003556;28;20064;-69
2022/12/04 13:05:47;;;;;;;6.10;3.78;;;4.00;99.90;;;;;;5004246;28;20038;-69
2022/12/04 13:08:49;;;;;;;15.02;5.75;;;4.00;99.90;;;;;;4985011;28;20511;-70
2022/12/04 13:11:23;;;;;;;10.40;5.88;;;3.90;99.90;;;;;;4997362;28;20422;-70
2022/12/04 13:13:54;;;;;;;16.92;5.10;;;3.90;99.90;;;;;;4997706;28;20502;-70
2022/12/04 13:16:42;;;;;;;16.90;6.55;;;4.00;99.90;;;;;;4983249;28;20469;-69
2022/12/04 13:19:21;;;;;;;9.00;4.90;;;4.10;99.90;;;;;;4992013;28;20027;-69
2022/12/04 13:21:58;;;;;;;18.27;5.25;;;4.00;99.90;;;;;;4984770;28;20037;-70
2022/12/04 13:25:02;;;;;;;11.60;6.00;;;3.90;99.90;;;;;;4998481;28;20029;-68
2022/12/04 13:27:44;;;;;;;9.77;4.28;;;3.90;99.90;;;;;;4994603;28;20026;-68
2022/12/04 13:30:29;;;;;;;11.20;5.22;;;3.90;99.90;;;;;;4998546;28;20116;-68
2022/12/04 13:33:17;;;;;;;9.18;4.13;;;3.90;99.90;;;;;;4986459;28;20030;-68
2022/12/04 13:36:07;;;;;;;13.00;5.55;;;3.90;99.90;;;;;;5000856;28;20148;-68
2022/12/04 13:38:47;;;;;;;11.50;5.57;;;3.90;99.90;;;;;;5000050;28;20554;-68
2022/12/04 13:41:20;;;;;;;11.37;5.20;;;3.90;99.90;;;;;;4998555;28;20042;-70
2022/12/04 13:43:50;;;;;;;16.33;5.30;;;3.90;99.90;;;;;;5001978;28;20038;-69
2022/12/04 13:46:39;;;;;;;9.85;4.40;;;3.90;99.90;;;;;;4981480;28;20039;-69
2022/12/04 13:49:24;;;;;;;8.95;5.13;;;3.90;99.90;;;;;;5004856;28;20437;-69
2022/12/04 13:51:53;;;;;;;10.48;4.50;;;3.90;99.90;;;;;;4996753;28;20041;-69
2022/12/04 13:54:27;;;;;;;7.15;4.88;;;3.80;99.90;;;;;;4990973;28;20065;-69
2022/12/04 13:57:13;;;;;;;12.07;5.18;;;3.90;99.90;;;;;;4999713;28;20042;-69
2022/12/04 13:59:41;;;;;;;16.45;5.30;;;3.90;99.90;;;;;;4987967;28;20106;-69
2022/12/04 14:02:34;;;;;;;6.85;3.78;;;3.90;99.90;;;;;;4983270;28;20034;-69
2022/12/04 14:05:10;;;;;;;12.05;5.57;;;3.90;99.90;;;;;;4985229;28;20047;-69
2022/12/04 14:07:43;;;;;;;9.52;4.82;;;3.90;99.90;;;;;;5006466;28;20057;-69
2022/12/04 14:10:15;;;;;;;9.43;4.43;;;3.90;99.90;;;;;;4992211;28;20030;-69
2022/12/04 14:12:54;;;;;;;16.00;5.60;;;4.00;99.90;;;;;;5005556;28;20548;-69
2022/12/04 14:15:27;;;;;;;19.23;6.03;;;3.90;99.90;;;;;;4989105;28;20124;-69
2022/12/04 14:18:22;;;;;;;12.02;5.75;;;3.90;99.90;;;;;;4989532;28;20128;-69
2022/12/04 14:21:03;;;;;;;11.18;5.35;;;3.90;99.90;;;;;;4993954;28;20034;-69
2022/12/04 14:23:41;;;;;;;12.55;5.47;;;3.90;99.90;;;;;;5003811;28;20044;-70
2022/12/04 14:26:32;;;;;;;14.40;5.35;;;3.80;99.90;;;;;;4985034;28;20042;-69
2022/12/04 14:29:58;;;;;;;10.88;4.70;;;3.80;99.90;;;;;;5007711;28;20109;-70
2022/12/04 14:32:30;;;;;;;9.52;4.95;;;3.80;99.90;;;;;;4953592;28;20038;-69
2022/12/04 14:34:57;;;;;;;10.45;5.38;;;3.70;99.90;;;;;;4989119;28;20034;-68
2022/12/04 14:37:35;;;;;;;8.95;4.25;;;3.80;99.90;;;;;;5006227;28;20053;-69
2022/12/04 14:40:06;;;;;;;9.13;4.18;;;3.80;99.90;;;;;;4989142;28;20086;-69
2022/12/04 14:42:38;;;;;;;16.40;6.93;;;3.80;99.90;;;;;;4997186;28;20018;-71
2022/12/04 14:45:44;;;;;;;19.90;6.72;;;3.80;99.90;;;;;;5007522;28;20054;-69
2022/12/04 14:48:41;;;;;;;18.23;5.05;;;3.70;99.90;;;;;;4996529;28;20111;-66
2022/12/04 14:51:27;;;;;;;12.13;5.28;;;3.60;99.90;;;;;;4971900;28;20073;-68
2022/12/04 14:54:37;;;;;;;9.68;5.00;;;3.60;99.90;;;;;;5001793;28;20095;-68
2022/12/04 14:57:52;;;;;;;14.32;5.00;;;3.60;99.90;;;;;;4996068;28;20379;-68
2022/12/04 15:00:22;;;;;;;9.35;5.75;;;3.70;99.90;;;;;;4925759;29;20060;-67
2022/12/04 15:02:53;;;;;;;9.20;4.68;;;3.80;99.90;;;;;;4978870;28;20043;-69
2022/12/04 15:05:30;;;;;;;;;;;3.70;99.90;;;;;;4983227;28;20097;-68
2022/12/04 15:08:00;;;;;;;8.18;4.35;;;3.70;99.90;;;;;;4979714;28;19914;-68
2022/12/04 15:13:36;;;;;;;14.50;5.90;;;3.70;99.90;;;;;;4986661;28;20045;-69
2022/12/04 15:16:21;;;;;;;17.50;5.80;;;3.70;99.90;;;;;;4984224;28;20102;-68
2022/12/04 15:18:56;;;;;;;27.48;6.93;;;3.70;99.90;;;;;;4988152;28;20161;-68
2022/12/04 15:21:29;;;;;;;10.82;5.63;;;3.80;99.90;;;;;;4975950;28;20029;-68
2022/12/04 15:23:55;;;;;;;13.73;6.35;;;3.80;99.90;;;;;;5000045;28;20493;-68
2022/12/04 15:26:23;;;;;;;20.58;6.68;;;3.80;99.90;;;;;;5000824;28;20033;-70